Merritt Island, FL (32953)

11:07 PM EDT on August 27, 2014 (GMT -0400)
Sunset Lakes | Change Station
CLOSE
Current Station
Personal Weather Station
Location: Merritt Island, FL
Elevation: 35 ft
Nearby Weather Stations

Elev 35 ft 28.43 °N, 80.71 °W | Updated 4 minutes ago

Clear
Clear
77.3 °F
Feels Like 79 °F
N
0.0
Wind Variable Wind from North
Gusts 0.0 mph

Today
High -- | Low -- °F
--% Chance of Precip.
Yesterday
High -- | Low -- °F
Precip. -- in
6:58 AM 7:49 PM
Waxing Crescent, 6% visible
Pressure 30.01 in
Visibility 10.0 miles
Clouds Clear
Heat Index 79 °F
Dew Point 74 °F
Humidity 88%
Rainfall -999.00 in
Snow Depth Not available.
UV 0.0 out of 12
Pollen 7.90 out of 12
Air Quality Not available.
Flu Activity Not available.
METAR KXMR 280258Z AUTO 04003KT 10SM CLR 25/23 A3000 RMK AO2 SLP162 T02520226 51010

More Conditions Fewer Conditions

Pressure 30.01 in
Visibility 10.0 miles
Clouds Clear
Heat Index 79 °F
Dew Point 74 °F
Humidity 88%
Rainfall -999.00 in
Snow Depth Not available.
UV 0.0 out of 12
Pollen 7.90 out of 12
Air Quality Not available.
Flu Activity Not available.
METAR KXMR 280258Z AUTO 04003KT 10SM CLR 25/23 A3000 RMK AO2 SLP162 T02520226 51010

More Conditions Fewer Conditions

10-Day Weather Forecast

Almanac

Astronomy

Aug. 27, 2014 Rise Set
Actual Time 6:58 AM EDT 7:49 PM EDT
Civil Twilight 6:34 AM EDT 8:13 PM EDT
Nautical Twilight 6:05 AM EDT 8:42 PM EDT
Astronomical Twilight 5:36 AM EDT 9:11 PM EDT
Moon 8:40 AM EDT (8/27) 8:56 PM EDT (8/27)
Length of Visible Light 13h 39m
Length of Day
12h 50m
Tomorrow will be 1m 36s shorter.
Waxing Crescent, 6% of the Moon is Illuminated
Today
Waxing Crescent
Sep 2
First Quarter
Sep 8
Full
Sep 15
Last Quarter
Sep 24
New

Today's Extremes

State Highs State Lows

Community

WunderPhotos

Upload Photos

1,747,888 photos uploaded!

Nearby

Snow Depth

Station Depth Elevation
No new snow has been reported.

Earthquake Activity

City Distance Mag. Time & Date
No recent earthquake activity has been reported nearby.
Minimum magnitude displayed is 2.5.

Coastal Water Temperatures

Place Temperature
Trident Pier, FL 82.9 °F
Fort Myers, FL 88.0 °F
Lake Worth, FL 87.1 °F

Nearby Weather Stations